Aviation Digital Data Service (ADDS)

Output produced by METARs form (1157 UTC 26 March 2019)
found at http://www.aviationweather.gov/metar/data/
 
DGAA 261100Z 16006KT 100V200 9999 BKN028 31/24 Q1011 NOSIG
TAF DGAA 261100Z 2612/2718 19010KT 9999 SCT020 
     TEMPO 2615/2619 TS FEW030CB 
     BECMG 2700/2702 2610KT BKN011 
     BECMG 2704/2706 5000 BR
       
TAF DGSI 260500Z 2606/2706 23005KT 9999 SCT020 
     TEMPO 2616/2622 14005KT 7000 TSRA BKN012CB 
     BECMG 2623/2701 BKN010